createdAt,value
2023-02-14T00:00:30.028Z,1021.85
2023-02-14T00:01:29.439Z,1021.86
2023-02-14T00:02:31.268Z,1021.81
2023-02-14T00:03:31.039Z,1021.89
2023-02-14T00:04:30.495Z,1021.85
2023-02-14T00:05:31.640Z,1021.90
2023-02-14T00:06:31.866Z,1021.85
2023-02-14T00:07:31.725Z,1021.87
2023-02-14T00:08:31.102Z,1021.87
2023-02-14T00:09:31.592Z,1021.88
2023-02-14T00:10:31.978Z,1021.94
2023-02-14T00:11:32.324Z,1021.92
2023-02-14T00:12:33.549Z,1022.04
2023-02-14T00:13:34.814Z,1022.01
2023-02-14T00:14:34.073Z,1021.98
2023-02-14T00:15:34.398Z,1021.98
2023-02-14T00:16:35.869Z,1021.98
2023-02-14T00:17:35.140Z,1022.01
2023-02-14T00:18:34.751Z,1022.04
2023-02-14T00:19:35.656Z,1021.95
2023-02-14T00:20:35.018Z,1021.99
2023-02-14T00:21:35.408Z,1022.01
2023-02-14T00:22:35.842Z,1022.02
2023-02-14T00:23:37.268Z,1021.97
2023-02-14T00:24:36.823Z,1021.91
2023-02-14T00:25:36.734Z,1022.00
2023-02-14T00:26:38.112Z,1022.00
2023-02-14T00:27:37.468Z,1021.97
2023-02-14T00:28:37.833Z,1021.99
2023-02-14T00:29:39.263Z,1021.96
2023-02-14T00:30:38.969Z,1022.02
2023-02-14T00:31:40.046Z,1022.03
2023-02-14T00:32:39.880Z,1021.93
2023-02-14T00:33:41.165Z,1021.98
2023-02-14T00:34:39.465Z,1021.98
2023-02-14T00:35:39.940Z,1021.98
2023-02-14T00:36:42.874Z,1021.94
2023-02-14T00:37:42.677Z,1021.96
2023-02-14T00:38:43.020Z,1021.99
2023-02-14T00:39:41.332Z,1021.95
2023-02-14T00:40:41.704Z,1021.92
2023-02-14T00:41:42.052Z,1021.95
2023-02-14T00:42:42.358Z,1021.95
2023-02-14T00:43:42.699Z,1021.91
2023-02-14T00:44:43.184Z,1021.92
2023-02-14T00:45:44.506Z,1021.92
2023-02-14T00:46:44.791Z,1021.94
2023-02-14T00:47:44.142Z,1021.93
2023-02-14T00:48:44.486Z,1021.88
2023-02-14T00:49:44.747Z,1021.93
2023-02-14T00:50:46.060Z,1021.90
2023-02-14T00:51:45.456Z,1021.95
2023-02-14T00:52:45.760Z,1021.95
2023-02-14T00:53:47.040Z,1021.96
2023-02-14T00:54:46.467Z,1021.97
2023-02-14T00:55:46.781Z,1021.94
2023-02-14T00:56:49.346Z,1021.94
2023-02-14T00:57:47.654Z,1021.98
2023-02-14T00:58:48.028Z,1021.97
2023-02-14T00:59:48.387Z,1021.99
2023-02-14T01:00:50.789Z,1022.00
2023-02-14T01:01:50.080Z,1022.02
2023-02-14T01:02:49.442Z,1022.02
2023-02-14T01:03:50.757Z,1022.02
2023-02-14T01:04:51.129Z,1022.06
2023-02-14T01:05:51.398Z,1022.01
2023-02-14T01:06:51.767Z,1022.05
2023-02-14T01:07:52.600Z,1022.05
2023-02-14T01:08:52.517Z,1022.06
2023-02-14T01:09:53.818Z,1022.04
2023-02-14T01:10:52.305Z,1022.02
2023-02-14T01:11:52.641Z,1022.14
2023-02-14T01:12:53.052Z,1022.14
2023-02-14T01:13:53.475Z,1022.19
2023-02-14T01:14:53.836Z,1022.19
2023-02-14T01:15:54.191Z,1022.22
2023-02-14T01:16:56.695Z,1022.25
2023-02-14T01:17:55.514Z,1022.21
2023-02-14T01:18:56.975Z,1022.23
2023-02-14T01:19:55.305Z,1022.22
2023-02-14T01:21:27.600Z,1022.21
2023-02-14T01:22:26.279Z,1022.22
2023-02-14T01:23:26.533Z,1022.25
2023-02-14T01:24:28.450Z,1022.24
2023-02-14T01:25:28.822Z,1022.23
2023-02-14T01:26:27.282Z,1022.29
2023-02-14T01:27:29.125Z,1022.28
2023-02-14T01:28:30.023Z,1022.28
2023-02-14T01:29:28.399Z,1022.27
2023-02-14T01:30:28.775Z,1022.26
2023-02-14T01:31:31.220Z,1022.25
2023-02-14T01:32:31.165Z,1022.29
2023-02-14T01:33:30.907Z,1022.28
2023-02-14T01:34:30.243Z,1022.29
2023-02-14T01:35:30.507Z,1022.29
2023-02-14T01:36:32.898Z,1022.24
2023-02-14T01:37:31.230Z,1022.29
2023-02-14T01:38:31.499Z,1022.29
2023-02-14T01:39:32.083Z,1022.28
2023-02-14T01:40:32.019Z,1022.31
2023-02-14T01:41:32.479Z,1022.24
2023-02-14T01:42:32.933Z,1022.27
2023-02-14T01:43:34.246Z,1022.24
2023-02-14T01:44:33.625Z,1022.20
2023-02-14T01:45:34.982Z,1022.23
2023-02-14T01:46:36.354Z,1022.22
2023-02-14T01:47:34.801Z,1022.28
2023-02-14T01:48:35.145Z,1022.19
2023-02-14T01:49:36.495Z,1022.16
2023-02-14T01:50:36.108Z,1022.16
2023-02-14T01:51:36.063Z,1022.18
2023-02-14T01:52:36.411Z,1022.16
2023-02-14T01:53:36.779Z,1022.17
2023-02-14T01:54:37.104Z,1022.18
2023-02-14T01:55:38.418Z,1022.21
2023-02-14T01:56:38.745Z,1022.24
2023-02-14T01:57:39.014Z,1022.19
2023-02-14T01:58:39.287Z,1022.22
2023-02-14T01:59:38.709Z,1022.26
2023-02-14T02:00:39.979Z,1022.22
2023-02-14T02:01:40.373Z,1022.16
2023-02-14T02:02:39.854Z,1022.18
2023-02-14T02:03:40.186Z,1022.19
2023-02-14T02:04:41.384Z,1022.21
2023-02-14T02:05:40.681Z,1022.19
2023-02-14T02:06:42.960Z,1022.16
2023-02-14T02:07:41.283Z,1022.12
2023-02-14T02:08:43.766Z,1022.12
2023-02-14T02:09:42.111Z,1022.07
2023-02-14T02:10:42.448Z,1022.10
2023-02-14T02:11:43.827Z,1022.13
2023-02-14T02:12:44.214Z,1022.11
2023-02-14T02:13:44.453Z,1022.08
2023-02-14T02:14:45.736Z,1022.08
2023-02-14T02:15:44.189Z,1022.04
2023-02-14T02:16:46.975Z,1022.03
2023-02-14T02:17:44.920Z,1022.03
2023-02-14T02:18:45.221Z,1022.05
2023-02-14T02:19:45.500Z,1022.03
2023-02-14T02:20:47.813Z,1022.03
2023-02-14T02:21:46.170Z,1022.03
2023-02-14T02:22:46.684Z,1022.02
2023-02-14T02:23:46.485Z,1021.97
2023-02-14T02:24:46.782Z,1021.99
2023-02-14T02:25:48.064Z,1022.00
2023-02-14T02:26:48.398Z,1022.02
2023-02-14T02:27:49.166Z,1021.99
2023-02-14T02:28:49.521Z,1021.98
2023-02-14T02:29:48.341Z,1022.02
2023-02-14T02:30:48.740Z,1021.97
2023-02-14T02:31:49.279Z,1022.05
2023-02-14T02:32:51.096Z,1022.02
2023-02-14T02:33:51.391Z,1022.01
2023-02-14T02:34:51.752Z,1021.99
2023-02-14T02:35:51.572Z,1021.96
2023-02-14T02:36:52.419Z,1021.95
2023-02-14T02:37:51.812Z,1021.94
2023-02-14T02:38:53.109Z,1021.94
2023-02-14T02:39:51.504Z,1021.98
2023-02-14T02:40:51.777Z,1021.91
2023-02-14T02:41:53.338Z,1021.92
2023-02-14T02:42:54.160Z,1021.94
2023-02-14T02:43:53.564Z,1021.87
2023-02-14T02:44:53.773Z,1021.86
2023-02-14T02:45:53.063Z,1021.82
2023-02-14T02:46:54.969Z,1021.85
2023-02-14T02:47:55.851Z,1021.83
2023-02-14T02:48:54.230Z,1021.85
2023-02-14T02:49:54.657Z,1021.86
2023-02-14T02:50:54.957Z,1021.76
2023-02-14T02:51:57.472Z,1021.75
2023-02-14T02:52:55.312Z,1021.77
2023-02-14T02:53:55.758Z,1021.76
2023-02-14T02:54:56.152Z,1021.77
2023-02-14T02:55:58.520Z,1021.75
2023-02-14T02:56:58.840Z,1021.69
2023-02-14T02:57:58.254Z,1021.66
2023-02-14T02:58:59.492Z,1021.69
2023-02-14T02:59:59.944Z,1021.66
2023-02-14T03:01:00.658Z,1021.62
2023-02-14T03:01:59.690Z,1021.62
2023-02-14T03:03:00.049Z,1021.61
2023-02-14T03:04:00.381Z,1021.63
2023-02-14T03:05:00.786Z,1021.65
2023-02-14T03:06:02.210Z,1021.63
2023-02-14T03:07:01.355Z,1021.60
2023-02-14T03:08:01.754Z,1021.62
2023-02-14T03:09:01.173Z,1021.63
2023-02-14T03:10:02.584Z,1021.59
2023-02-14T03:11:02.161Z,1021.58
2023-02-14T03:12:03.176Z,1021.56
2023-02-14T03:13:03.316Z,1021.62
2023-02-14T03:14:03.472Z,1021.52
2023-02-14T03:15:03.655Z,1021.57
2023-02-14T03:16:03.861Z,1021.57
2023-02-14T03:17:04.126Z,1021.56
2023-02-14T03:18:04.352Z,1021.60
2023-02-14T03:19:03.756Z,1021.64
2023-02-14T03:20:05.064Z,1021.62
2023-02-14T03:21:05.338Z,1021.55
2023-02-14T03:22:05.718Z,1021.58
2023-02-14T03:23:06.002Z,1021.61
2023-02-14T03:24:06.611Z,1021.56
2023-02-14T03:25:06.425Z,1021.59
2023-02-14T03:26:06.706Z,1021.59
2023-02-14T03:27:07.142Z,1021.57
2023-02-14T03:28:07.273Z,1021.61
2023-02-14T03:29:07.599Z,1021.57
2023-02-14T03:30:08.055Z,1021.56
2023-02-14T03:31:09.004Z,1021.55
2023-02-14T03:32:08.996Z,1021.54
2023-02-14T03:33:08.832Z,1021.56
2023-02-14T03:34:09.183Z,1021.50
2023-02-14T03:35:09.785Z,1021.54
2023-02-14T03:36:09.636Z,1021.50
2023-02-14T03:37:10.009Z,1021.49
2023-02-14T03:38:10.284Z,1021.48
2023-02-14T03:39:10.564Z,1021.43
2023-02-14T03:40:10.671Z,1021.42
2023-02-14T03:41:10.948Z,1021.38
2023-02-14T03:42:11.232Z,1021.39
2023-02-14T03:43:11.544Z,1021.41
2023-02-14T03:44:11.052Z,1021.37
2023-02-14T03:45:12.424Z,1021.34
2023-02-14T03:46:11.880Z,1021.39
2023-02-14T03:47:14.236Z,1021.35
2023-02-14T03:48:12.769Z,1021.38
2023-02-14T03:49:14.657Z,1021.37
2023-02-14T03:50:13.146Z,1021.44
2023-02-14T03:51:13.652Z,1021.40
2023-02-14T03:52:14.323Z,1021.42
2023-02-14T03:53:14.197Z,1021.40
2023-02-14T03:54:15.549Z,1021.45
2023-02-14T03:55:14.965Z,1021.46
2023-02-14T03:56:17.093Z,1021.44
2023-02-14T03:57:17.029Z,1021.48
2023-02-14T03:58:16.806Z,1021.44
2023-02-14T03:59:16.157Z,1021.41
2023-02-14T04:00:17.466Z,1021.40
2023-02-14T04:01:18.356Z,1021.42
2023-02-14T04:02:18.129Z,1021.36
2023-02-14T04:03:18.536Z,1021.40
2023-02-14T04:04:17.831Z,1021.36
2023-02-14T04:05:18.197Z,1021.40
2023-02-14T04:06:20.745Z,1021.40
2023-02-14T04:07:19.737Z,1021.39
2023-02-14T04:08:19.117Z,1021.42
2023-02-14T04:09:21.453Z,1021.40
2023-02-14T04:10:19.826Z,1021.49
2023-02-14T04:11:22.957Z,1021.42
2023-02-14T04:12:32.344Z,1021.40
2023-02-14T04:13:20.757Z,1021.40
2023-02-14T04:14:21.790Z,1021.41
2023-02-14T04:15:21.100Z,1021.39
2023-02-14T04:16:21.544Z,1021.42
2023-02-14T04:17:22.087Z,1021.44
2023-02-14T04:18:22.112Z,1021.40
2023-02-14T04:19:22.516Z,1021.37
2023-02-14T04:20:24.903Z,1021.42
2023-02-14T04:21:24.317Z,1021.37
2023-02-14T04:22:23.619Z,1021.32
2023-02-14T04:23:23.986Z,1021.29
2023-02-14T04:24:26.712Z,1021.32
2023-02-14T04:25:24.569Z,1021.30
2023-02-14T04:26:24.976Z,1021.35
2023-02-14T04:27:25.285Z,1021.33
2023-02-14T04:28:25.640Z,1021.30
2023-02-14T04:29:27.049Z,1021.35
2023-02-14T04:30:26.479Z,1021.34
2023-02-14T04:31:28.049Z,1021.33
2023-02-14T04:32:27.947Z,1021.34
2023-02-14T04:33:27.371Z,1021.28
2023-02-14T04:34:28.747Z,1021.29
2023-02-14T04:35:29.579Z,1021.29
2023-02-14T04:36:30.604Z,1021.33
2023-02-14T04:37:29.433Z,1021.31
2023-02-14T04:38:28.803Z,1021.30
2023-02-14T04:39:29.068Z,1021.36
2023-02-14T04:40:29.413Z,1021.35
2023-02-14T04:41:29.841Z,1021.28
2023-02-14T04:42:30.188Z,1021.32
2023-02-14T04:43:30.511Z,1021.32
2023-02-14T04:44:30.881Z,1021.30
2023-02-14T04:45:32.340Z,1021.33
2023-02-14T04:46:32.940Z,1021.26
2023-02-14T04:47:33.926Z,1021.28
2023-02-14T04:48:32.252Z,1021.27
2023-02-14T04:49:33.625Z,1021.25
2023-02-14T04:50:34.920Z,1021.24
2023-02-14T04:51:35.251Z,1021.23
2023-02-14T04:52:35.018Z,1021.28
2023-02-14T04:53:33.900Z,1021.23
2023-02-14T04:54:36.180Z,1021.23
2023-02-14T04:55:35.508Z,1021.25
2023-02-14T04:56:34.997Z,1021.21
2023-02-14T04:57:36.795Z,1021.23
2023-02-14T04:58:36.364Z,1021.24
2023-02-14T04:59:36.125Z,1021.22
2023-02-14T05:00:35.628Z,1021.24
2023-02-14T05:01:35.483Z,1021.23
2023-02-14T05:02:37.240Z,1021.26
2023-02-14T05:03:38.554Z,1021.20
2023-02-14T05:04:38.452Z,1021.21
2023-02-14T05:05:38.856Z,1021.21
2023-02-14T05:06:37.611Z,1021.23
2023-02-14T05:07:38.511Z,1021.22
2023-02-14T05:08:38.930Z,1021.23
2023-02-14T05:09:39.218Z,1021.25
2023-02-14T05:10:40.431Z,1021.28
2023-02-14T05:11:39.817Z,1021.26
2023-02-14T05:12:39.225Z,1021.28
2023-02-14T05:13:39.621Z,1021.19
2023-02-14T05:14:39.997Z,1021.25
2023-02-14T05:15:41.391Z,1021.22
2023-02-14T05:16:41.081Z,1021.22
2023-02-14T05:17:42.916Z,1021.24
2023-02-14T05:18:42.248Z,1021.18
2023-02-14T05:19:41.614Z,1021.18
2023-02-14T05:20:42.287Z,1021.20
2023-02-14T05:21:42.198Z,1021.20
2023-02-14T05:22:42.583Z,1021.18
2023-02-14T05:23:43.064Z,1021.20
2023-02-14T05:24:45.381Z,1021.25
2023-02-14T05:25:43.795Z,1021.23
2023-02-14T05:26:46.217Z,1021.24
2023-02-14T05:27:46.604Z,1021.23
2023-02-14T05:28:45.060Z,1021.24
2023-02-14T05:29:47.366Z,1021.20
2023-02-14T05:30:45.825Z,1021.23
2023-02-14T05:31:48.323Z,1021.27
2023-02-14T05:32:46.289Z,1021.20
2023-02-14T05:33:46.756Z,1021.19
2023-02-14T05:34:48.220Z,1021.23
2023-02-14T05:35:47.637Z,1021.23
2023-02-14T05:36:50.074Z,1021.21
2023-02-14T05:37:48.529Z,1021.22
2023-02-14T05:38:49.917Z,1021.17
2023-02-14T05:39:49.595Z,1021.18
2023-02-14T05:40:50.453Z,1021.19
2023-02-14T05:41:49.790Z,1021.24
2023-02-14T05:42:50.610Z,1021.24
2023-02-14T05:43:50.485Z,1021.25
2023-02-14T05:44:50.794Z,1021.26
2023-02-14T05:45:51.213Z,1021.24
2023-02-14T05:46:52.741Z,1021.27
2023-02-14T05:47:51.750Z,1021.24
2023-02-14T05:48:52.161Z,1021.31
2023-02-14T05:49:53.512Z,1021.31
2023-02-14T05:50:54.349Z,1021.32
2023-02-14T05:51:55.229Z,1021.23
2023-02-14T05:52:53.635Z,1021.26
2023-02-14T05:53:54.922Z,1021.31
2023-02-14T05:54:57.831Z,1021.28
2023-02-14T05:55:54.751Z,1021.35
2023-02-14T05:56:57.035Z,1021.34
2023-02-14T05:57:56.503Z,1021.39
2023-02-14T05:58:56.873Z,1021.37
2023-02-14T05:59:58.123Z,1021.35
2023-02-14T06:00:56.532Z,1021.41
2023-02-14T06:01:57.891Z,1021.37
2023-02-14T06:02:57.682Z,1021.40
2023-02-14T06:03:58.583Z,1021.35
2023-02-14T06:04:59.884Z,1021.37
2023-02-14T06:05:58.314Z,1021.31
2023-02-14T06:07:01.722Z,1021.37
2023-02-14T06:07:59.151Z,1021.28
2023-02-14T06:09:00.544Z,1021.30
2023-02-14T06:09:59.898Z,1021.40
2023-02-14T06:11:01.606Z,1021.35
2023-02-14T06:12:00.746Z,1021.36
2023-02-14T06:13:00.602Z,1021.39
2023-02-14T06:14:01.963Z,1021.40
2023-02-14T06:15:03.400Z,1021.40
2023-02-14T06:16:02.764Z,1021.42
2023-02-14T06:17:03.461Z,1021.44
2023-02-14T06:18:02.347Z,1021.44
2023-02-14T06:19:04.719Z,1021.45
2023-02-14T06:20:03.178Z,1021.46
2023-02-14T06:21:04.961Z,1021.45
2023-02-14T06:22:05.849Z,1021.45
2023-02-14T06:23:05.159Z,1021.44
2023-02-14T06:24:04.731Z,1021.43
2023-02-14T06:25:05.454Z,1021.47
2023-02-14T06:26:05.345Z,1021.46
2023-02-14T06:27:06.396Z,1021.49
2023-02-14T06:28:05.459Z,1021.48
2023-02-14T06:29:07.837Z,1021.51
2023-02-14T06:30:06.236Z,1021.51
2023-02-14T06:31:07.552Z,1021.49
2023-02-14T06:32:07.965Z,1021.44
2023-02-14T06:33:09.575Z,1021.43
2023-02-14T06:34:07.711Z,1021.50
2023-02-14T06:35:10.031Z,1021.44
2023-02-14T06:36:08.376Z,1021.44
2023-02-14T06:37:09.145Z,1021.44
2023-02-14T06:38:09.298Z,1021.41
2023-02-14T06:39:10.082Z,1021.48
2023-02-14T06:40:09.913Z,1021.46
2023-02-14T06:41:09.563Z,1021.45
2023-02-14T06:42:10.215Z,1021.45
2023-02-14T06:43:10.693Z,1021.45
2023-02-14T06:44:10.183Z,1021.47
2023-02-14T06:45:10.168Z,1021.46
2023-02-14T06:46:10.530Z,1021.47
2023-02-14T06:47:11.735Z,1021.44
2023-02-14T06:48:12.166Z,1021.50
2023-02-14T06:49:12.721Z,1021.49
2023-02-14T06:50:11.846Z,1021.52
2023-02-14T06:51:12.828Z,1021.51
2023-02-14T06:52:12.127Z,1021.55
2023-02-14T06:53:13.105Z,1021.51
2023-02-14T06:54:12.727Z,1021.53
2023-02-14T06:55:12.724Z,1021.57
2023-02-14T06:56:14.130Z,1021.58
2023-02-14T06:57:13.965Z,1021.50
2023-02-14T06:58:14.855Z,1021.52
2023-02-14T06:59:14.026Z,1021.58
2023-02-14T07:00:14.088Z,1021.53
2023-02-14T07:01:16.065Z,1021.52
2023-02-14T07:02:15.107Z,1021.54
2023-02-14T07:03:14.339Z,1021.57
2023-02-14T07:04:16.391Z,1021.56
2023-02-14T07:05:14.768Z,1021.59
2023-02-14T07:06:17.076Z,1021.61
2023-02-14T07:07:15.931Z,1021.58
2023-02-14T07:08:16.353Z,1021.61
2023-02-14T07:09:16.929Z,1021.61
2023-02-14T07:10:17.061Z,1021.64
2023-02-14T07:11:16.785Z,1021.61
2023-02-14T07:12:18.110Z,1021.64
2023-02-14T07:13:17.487Z,1021.59
2023-02-14T07:14:18.412Z,1021.60
2023-02-14T07:15:17.948Z,1021.63
2023-02-14T07:16:18.512Z,1021.57
2023-02-14T07:17:19.622Z,1021.64
2023-02-14T07:18:17.792Z,1021.63
2023-02-14T07:19:19.757Z,1021.59
2023-02-14T07:20:19.149Z,1021.63
2023-02-14T07:21:19.449Z,1021.65
2023-02-14T07:22:18.812Z,1021.63
2023-02-14T07:23:21.795Z,1021.62
2023-02-14T07:24:20.231Z,1021.60
2023-02-14T07:25:20.625Z,1021.60
2023-02-14T07:26:20.390Z,1021.64
2023-02-14T07:27:21.337Z,1021.64
2023-02-14T07:28:20.741Z,1021.59
2023-02-14T07:29:22.898Z,1021.64
2023-02-14T07:30:21.947Z,1021.68
2023-02-14T07:31:22.878Z,1021.61
2023-02-14T07:32:23.013Z,1021.62
2023-02-14T07:33:22.096Z,1021.65
2023-02-14T07:34:23.280Z,1021.65
2023-02-14T07:35:23.052Z,1021.61
2023-02-14T07:36:23.590Z,1021.63
2023-02-14T07:37:25.304Z,1021.58
2023-02-14T07:38:23.552Z,1021.65
2023-02-14T07:39:24.162Z,1021.62
2023-02-14T07:40:24.088Z,1021.59
2023-02-14T07:41:24.286Z,1021.64
2023-02-14T07:42:24.446Z,1021.66
2023-02-14T07:43:24.677Z,1021.65
2023-02-14T07:44:25.092Z,1021.65
2023-02-14T07:45:25.149Z,1021.72
2023-02-14T07:46:25.712Z,1021.68
2023-02-14T07:47:25.684Z,1021.70
2023-02-14T07:48:26.060Z,1021.72
2023-02-14T07:49:25.256Z,1021.69
2023-02-14T07:50:26.101Z,1021.71
2023-02-14T07:51:25.685Z,1021.67
2023-02-14T07:52:25.890Z,1021.67
2023-02-14T07:53:27.384Z,1021.65
2023-02-14T07:54:27.186Z,1021.68
2023-02-14T07:55:27.479Z,1021.63
2023-02-14T07:56:28.797Z,1021.65
2023-02-14T07:57:28.054Z,1021.66
2023-02-14T07:58:29.340Z,1021.71
2023-02-14T07:59:27.961Z,1021.65
2023-02-14T08:00:28.861Z,1021.68
2023-02-14T08:01:29.906Z,1021.67
2023-02-14T08:02:28.491Z,1021.70
2023-02-14T08:03:31.196Z,1021.65
2023-02-14T08:04:32.197Z,1021.67
2023-02-14T08:05:30.271Z,1021.70
2023-02-14T08:06:31.051Z,1021.67
2023-02-14T08:07:30.867Z,1021.63
2023-02-14T08:08:29.915Z,1021.69
2023-02-14T08:09:30.947Z,1021.65
2023-02-14T08:10:31.424Z,1021.59
2023-02-14T08:11:31.141Z,1021.58
2023-02-14T08:12:30.405Z,1021.62
2023-02-14T08:13:31.579Z,1021.60
2023-02-14T08:14:31.904Z,1021.69
2023-02-14T08:15:31.858Z,1021.57
2023-02-14T08:16:32.688Z,1021.57
2023-02-14T08:17:32.158Z,1021.49
2023-02-14T08:18:32.700Z,1021.59
2023-02-14T08:19:32.962Z,1021.58
2023-02-14T08:20:33.621Z,1021.60
2023-02-14T08:21:33.615Z,1021.57
2023-02-14T08:22:34.256Z,1021.55
2023-02-14T08:23:33.834Z,1021.59
2023-02-14T08:24:34.130Z,1021.61
2023-02-14T08:25:34.621Z,1021.61
2023-02-14T08:26:34.639Z,1021.59
2023-02-14T08:27:34.145Z,1021.55
2023-02-14T08:28:35.659Z,1021.55
2023-02-14T08:29:35.117Z,1021.56
2023-02-14T08:30:36.034Z,1021.44
2023-02-14T08:31:37.130Z,1021.53
2023-02-14T08:32:36.502Z,1021.54
2023-02-14T08:33:35.740Z,1021.57
2023-02-14T08:34:36.489Z,1021.53
2023-02-14T08:35:37.732Z,1021.52
2023-02-14T08:36:37.587Z,1021.56
2023-02-14T08:37:37.310Z,1021.57
2023-02-14T08:38:38.588Z,1021.56
2023-02-14T08:39:37.514Z,1021.53
2023-02-14T08:40:37.515Z,1021.56
2023-02-14T08:41:38.248Z,1021.50
2023-02-14T08:42:39.055Z,1021.54
2023-02-14T08:43:39.602Z,1021.49
2023-02-14T08:44:39.377Z,1021.55
2023-02-14T08:45:39.599Z,1021.53
2023-02-14T08:46:40.158Z,1021.48
2023-02-14T08:47:40.190Z,1021.46
2023-02-14T08:48:40.025Z,1021.51
2023-02-14T08:49:39.769Z,1021.55
2023-02-14T08:50:40.730Z,1021.52
2023-02-14T08:51:40.267Z,1021.49
2023-02-14T08:52:40.666Z,1021.47
2023-02-14T08:53:41.377Z,1021.46
2023-02-14T08:54:41.497Z,1021.42
2023-02-14T08:55:42.416Z,1021.44
2023-02-14T08:56:41.608Z,1021.40
2023-02-14T08:57:41.076Z,1021.43
2023-02-14T08:58:42.639Z,1021.44
2023-02-14T08:59:42.431Z,1021.40
2023-02-14T09:00:43.058Z,1021.43
2023-02-14T09:01:42.259Z,1021.46
2023-02-14T09:02:42.490Z,1021.41
2023-02-14T09:03:42.786Z,1021.45
2023-02-14T09:04:44.776Z,1021.39
2023-02-14T09:05:43.788Z,1021.39
2023-02-14T09:06:44.140Z,1021.40
2023-02-14T09:07:44.525Z,1021.48
2023-02-14T09:08:44.048Z,1021.46
2023-02-14T09:09:44.481Z,1021.45
2023-02-14T09:10:45.409Z,1021.44
2023-02-14T09:11:45.294Z,1021.42
2023-02-14T09:12:47.205Z,1021.39
2023-02-14T09:13:46.976Z,1021.40
2023-02-14T09:14:47.326Z,1021.39
2023-02-14T09:15:47.002Z,1021.43
2023-02-14T09:16:47.921Z,1021.32
2023-02-14T09:17:49.021Z,1021.37
2023-02-14T09:18:48.218Z,1021.36
2023-02-14T09:19:48.082Z,1021.36
2023-02-14T09:20:49.359Z,1021.34
2023-02-14T09:21:49.657Z,1021.35
2023-02-14T09:22:50.224Z,1021.35
2023-02-14T09:23:50.101Z,1021.29
2023-02-14T09:24:50.501Z,1021.31
2023-02-14T09:25:50.069Z,1021.29
2023-02-14T09:26:50.173Z,1021.34
2023-02-14T09:27:50.618Z,1021.34
2023-02-14T09:28:49.779Z,1021.28
2023-02-14T09:29:50.516Z,1021.28
2023-02-14T09:30:51.413Z,1021.27
2023-02-14T09:31:51.331Z,1021.20
2023-02-14T09:32:50.573Z,1021.22
2023-02-14T09:33:50.633Z,1021.17
2023-02-14T09:34:52.444Z,1021.13
2023-02-14T09:35:50.879Z,1021.21
2023-02-14T09:36:52.933Z,1021.17
2023-02-14T09:37:52.554Z,1021.17
2023-02-14T09:38:52.040Z,1021.20
2023-02-14T09:39:52.205Z,1021.08
2023-02-14T09:40:52.334Z,1021.07
2023-02-14T09:41:52.822Z,1021.07
2023-02-14T09:42:52.323Z,1021.08
2023-02-14T09:43:52.449Z,1021.07
2023-02-14T09:44:52.391Z,1021.09
2023-02-14T09:45:53.129Z,1021.13
2023-02-14T09:46:52.636Z,1021.11
2023-02-14T09:47:54.159Z,1021.07
2023-02-14T09:48:54.332Z,1021.09
2023-02-14T09:49:53.936Z,1021.03
2023-02-14T09:50:54.123Z,1020.98
2023-02-14T09:51:55.526Z,1020.98
2023-02-14T09:52:56.487Z,1021.08
2023-02-14T09:53:54.416Z,1021.01
2023-02-14T09:54:55.465Z,1020.98
2023-02-14T09:55:54.881Z,1020.98
2023-02-14T09:56:54.872Z,1020.95
2023-02-14T09:57:55.155Z,1020.96
2023-02-14T09:58:55.936Z,1020.92
2023-02-14T09:59:55.368Z,1020.91
2023-02-14T10:00:55.535Z,1020.90
2023-02-14T10:01:55.634Z,1020.91
2023-02-14T10:02:55.622Z,1020.91
2023-02-14T10:03:55.726Z,1020.93
2023-02-14T10:04:56.508Z,1020.91
2023-02-14T10:05:57.300Z,1020.94
2023-02-14T10:06:56.950Z,1020.91
2023-02-14T10:07:57.630Z,1020.92
2023-02-14T10:08:57.582Z,1020.89
2023-02-14T10:09:57.373Z,1020.94
2023-02-14T10:10:57.837Z,1020.89
2023-02-14T10:11:58.667Z,1020.86
2023-02-14T10:12:59.001Z,1020.94
2023-02-14T10:13:58.525Z,1020.87
2023-02-14T10:14:58.374Z,1020.87
2023-02-14T10:15:59.355Z,1020.85
2023-02-14T10:16:59.266Z,1020.91
2023-02-14T10:17:59.568Z,1020.87
2023-02-14T10:19:00.112Z,1020.91
2023-02-14T10:19:59.733Z,1020.86
2023-02-14T10:21:00.320Z,1020.85
2023-02-14T10:22:00.116Z,1020.86
2023-02-14T10:23:00.366Z,1020.87
2023-02-14T10:24:00.980Z,1020.86
2023-02-14T10:25:01.220Z,1020.81
2023-02-14T10:26:00.589Z,1020.83
2023-02-14T10:27:00.682Z,1020.80
2023-02-14T10:28:00.725Z,1020.74
2023-02-14T10:29:00.698Z,1020.79
2023-02-14T10:30:00.854Z,1020.79
2023-02-14T10:31:01.302Z,1020.77
2023-02-14T10:32:01.170Z,1020.75
2023-02-14T10:33:01.183Z,1020.69
2023-02-14T10:34:01.354Z,1020.73
2023-02-14T10:35:01.572Z,1020.69
2023-02-14T10:36:01.571Z,1020.71
2023-02-14T10:37:01.469Z,1020.71
2023-02-14T10:38:01.554Z,1020.71
2023-02-14T10:39:01.616Z,1020.73
2023-02-14T10:40:01.871Z,1020.66
2023-02-14T10:41:01.916Z,1020.64
2023-02-14T10:42:01.814Z,1020.68
2023-02-14T10:43:02.241Z,1020.69
2023-02-14T10:44:02.055Z,1020.63
2023-02-14T10:45:02.689Z,1020.59
2023-02-14T10:46:02.530Z,1020.60
2023-02-14T10:47:02.544Z,1020.59
2023-02-14T10:48:02.470Z,1020.55
2023-02-14T10:49:02.950Z,1020.55
2023-02-14T10:50:03.402Z,1020.52
2023-02-14T10:51:03.625Z,1020.55
2023-02-14T10:52:03.764Z,1020.55
2023-02-14T10:53:03.911Z,1020.51
2023-02-14T10:54:04.036Z,1020.56
2023-02-14T10:55:04.350Z,1020.52
2023-02-14T10:56:04.290Z,1020.54
2023-02-14T10:57:04.701Z,1020.55
2023-02-14T10:58:05.645Z,1020.54
2023-02-14T10:59:04.587Z,1020.48
2023-02-14T11:00:04.597Z,1020.48
2023-02-14T11:01:04.839Z,1020.46
2023-02-14T11:02:04.855Z,1020.42
2023-02-14T11:03:04.841Z,1020.46
2023-02-14T11:04:04.857Z,1020.42
2023-02-14T11:05:07.740Z,1020.40
2023-02-14T11:06:05.307Z,1020.41
2023-02-14T11:07:06.115Z,1020.40
2023-02-14T11:08:05.668Z,1020.41
2023-02-14T11:09:05.721Z,1020.37
2023-02-14T11:10:05.932Z,1020.36
2023-02-14T11:11:06.252Z,1020.34
2023-02-14T11:12:06.985Z,1020.34
2023-02-14T11:13:06.198Z,1020.34
2023-02-14T11:14:06.211Z,1020.22
2023-02-14T11:15:06.580Z,1020.30
2023-02-14T11:16:06.398Z,1020.26
2023-02-14T11:17:06.262Z,1020.24
2023-02-14T11:18:06.753Z,1020.25
2023-02-14T11:19:06.770Z,1020.18
2023-02-14T11:20:06.707Z,1020.19
2023-02-14T11:21:07.145Z,1020.17
2023-02-14T11:22:07.178Z,1020.18
2023-02-14T11:23:07.037Z,1020.21
2023-02-14T11:24:07.856Z,1020.17
2023-02-14T11:25:07.381Z,1020.15
2023-02-14T11:26:07.878Z,1020.17
2023-02-14T11:27:08.042Z,1020.14
2023-02-14T11:28:08.467Z,1020.15
2023-02-14T11:29:08.025Z,1020.14
2023-02-14T11:30:08.244Z,1020.15
2023-02-14T11:31:08.246Z,1020.12
2023-02-14T11:32:08.258Z,1020.06
2023-02-14T11:33:08.502Z,1020.04
2023-02-14T11:34:08.367Z,1020.02
2023-02-14T11:35:08.847Z,1020.02
2023-02-14T11:36:09.134Z,1019.99
2023-02-14T11:37:09.195Z,1019.95
2023-02-14T11:38:09.211Z,1019.96
2023-02-14T11:39:09.715Z,1019.96
2023-02-14T11:40:10.014Z,1019.92
2023-02-14T11:41:09.686Z,1019.93
2023-02-14T11:42:09.885Z,1019.88
2023-02-14T11:43:14.421Z,1019.95
2023-02-14T11:44:10.099Z,1019.85
2023-02-14T11:45:10.124Z,1019.80
2023-02-14T11:46:10.605Z,1019.80
2023-02-14T11:47:10.794Z,1019.78
2023-02-14T11:48:11.237Z,1019.77
2023-02-14T11:49:10.724Z,1019.79
2023-02-14T11:50:11.461Z,1019.83
2023-02-14T11:51:13.237Z,1019.77
2023-02-14T11:52:12.304Z,1019.69
2023-02-14T11:53:12.305Z,1019.73
2023-02-14T11:54:13.333Z,1019.66
2023-02-14T11:55:13.260Z,1019.67
2023-02-14T11:56:12.761Z,1019.59
2023-02-14T11:57:14.850Z,1019.57
2023-02-14T11:58:13.350Z,1019.63
2023-02-14T11:59:12.514Z,1019.63
2023-02-14T12:00:12.489Z,1019.56
2023-02-14T12:01:13.754Z,1019.53
2023-02-14T12:02:13.910Z,1019.52
2023-02-14T12:03:14.726Z,1019.55
2023-02-14T12:04:13.756Z,1019.53
2023-02-14T12:05:14.674Z,1019.50
2023-02-14T12:06:13.656Z,1019.50
2023-02-14T12:07:14.332Z,1019.46
2023-02-14T12:08:13.732Z,1019.39
2023-02-14T12:09:14.052Z,1019.45